Time;durP1;ratioP1;P1;durP2;ratioP2;P2;SDS_P1;SDS_P2;PMS_P1;PMS_P2;Temp;Humidity;BMP_temperature;BMP_pressure;BME280_temperature;BME280_humidity;BME280_pressure;Samples;Min_cycle;Max_cycle;Signal;HPM_P1;HPM_P2
2022/07/13 00:01:09;;;;;;;1.75;1.30;;;18.70;82.00;;;;;;5040186;28;20414;-73
2022/07/13 00:03:35;;;;;;;3.08;1.50;;;18.70;81.90;;;;;;5048151;28;20112;-73
2022/07/13 00:06:00;;;;;;;2.60;1.60;;;18.70;82.00;;;;;;5046615;28;20361;-73
2022/07/13 00:08:26;;;;;;;2.13;1.50;;;18.70;81.80;;;;;;5046559;28;20111;-73
2022/07/13 00:10:51;;;;;;;2.13;1.50;;;18.70;81.80;;;;;;5047373;28;20135;-73
2022/07/13 00:13:17;;;;;;;3.55;1.48;;;18.70;81.50;;;;;;5046558;28;20117;-73
2022/07/13 00:15:42;;;;;;;2.28;1.60;;;18.80;81.40;;;;;;5043554;28;20112;-73
2022/07/13 00:18:08;;;;;;;4.68;1.80;;;18.70;81.50;;;;;;5042082;28;20070;-73
2022/07/13 00:20:33;;;;;;;1.95;1.42;;;18.70;81.30;;;;;;5045118;28;20056;-73
2022/07/13 00:22:59;;;;;;;2.97;1.75;;;18.80;80.90;;;;;;5045161;28;20135;-73
2022/07/13 00:25:24;;;;;;;2.60;1.30;;;18.80;81.10;;;;;;5041233;28;20090;-73
2022/07/13 00:27:50;;;;;;;2.55;1.63;;;18.80;80.90;;;;;;5046087;28;20421;-73
2022/07/13 00:30:15;;;;;;;2.75;1.73;;;18.80;80.90;;;;;;5043514;28;20048;-73
2022/07/13 00:32:41;;;;;;;3.38;1.33;;;18.80;80.80;;;;;;5046850;28;20067;-73
2022/07/13 00:35:07;;;;;;;4.07;1.48;;;18.90;80.50;;;;;;5043709;28;20076;-73
2022/07/13 00:37:32;;;;;;;2.10;1.50;;;18.80;80.70;;;;;;5050466;28;20048;-73
2022/07/13 00:39:58;;;;;;;2.80;1.52;;;18.90;80.50;;;;;;5044182;28;20037;-73
2022/07/13 00:42:23;;;;;;;2.83;1.48;;;19.00;80.60;;;;;;5038381;28;20091;-73
2022/07/13 00:44:49;;;;;;;3.30;1.60;;;19.00;80.30;;;;;;5041851;28;20051;-73
2022/07/13 00:47:15;;;;;;;3.97;1.33;;;19.00;80.20;;;;;;5046906;28;20098;-73
2022/07/13 00:49:41;;;;;;;2.03;1.40;;;19.00;80.10;;;;;;5043731;28;20037;-73
2022/07/13 00:52:07;;;;;;;2.83;1.52;;;19.00;80.00;;;;;;5041674;28;20456;-73
2022/07/13 00:54:33;;;;;;;3.00;1.58;;;19.00;79.80;;;;;;5047909;28;20127;-73
2022/07/13 00:57:01;;;;;;;2.80;1.90;;;19.00;80.00;;;;;;5043361;28;20025;-73
2022/07/13 00:59:26;;;;;;;3.00;1.70;;;19.00;80.10;;;;;;5041631;28;20081;-73
2022/07/13 01:01:53;;;;;;;2.67;1.55;;;19.00;79.80;;;;;;5047377;28;20109;-73
2022/07/13 01:04:21;;;;;;;4.15;1.88;;;19.10;79.50;;;;;;5046856;28;20040;-73
2022/07/13 01:06:47;;;;;;;2.90;1.65;;;19.10;79.60;;;;;;5047250;28;20083;-73
2022/07/13 01:09:12;;;;;;;3.63;1.67;;;19.10;79.60;;;;;;5040559;28;20422;-73
2022/07/13 01:11:39;;;;;;;2.45;1.70;;;19.10;79.60;;;;;;5041702;28;20055;-73
2022/07/13 01:14:05;;;;;;;7.03;2.00;;;19.10;79.90;;;;;;5043491;28;20033;-73
2022/07/13 01:16:31;;;;;;;2.88;1.80;;;19.10;79.80;;;;;;5047646;28;20060;-73
2022/07/13 01:18:57;;;;;;;5.63;1.80;;;19.20;79.60;;;;;;5042563;28;20545;-73
2022/07/13 01:21:23;;;;;;;3.67;2.03;;;19.10;79.90;;;;;;5045250;28;20038;-73
2022/07/13 01:23:49;;;;;;;5.30;2.15;;;19.10;79.80;;;;;;5043381;28;20041;-73
2022/07/13 01:26:15;;;;;;;5.22;2.30;;;19.10;80.00;;;;;;5037374;28;20045;-73
2022/07/13 01:28:40;;;;;;;3.47;1.80;;;19.10;79.70;;;;;;5043006;28;20041;-73
2022/07/13 01:31:06;;;;;;;3.88;2.05;;;19.10;79.70;;;;;;5045719;28;20079;-73
2022/07/13 01:33:31;;;;;;;5.43;2.25;;;19.10;79.60;;;;;;5044703;28;20540;-73
2022/07/13 01:35:58;;;;;;;4.20;2.33;;;19.10;79.60;;;;;;5044408;28;20464;-73
2022/07/13 01:38:24;;;;;;;4.60;2.22;;;19.00;80.00;;;;;;5046275;28;20025;-73
2022/07/13 01:40:49;;;;;;;4.10;2.08;;;19.00;80.00;;;;;;5040613;28;20673;-73
2022/07/13 01:43:16;;;;;;;2.97;1.95;;;19.00;80.10;;;;;;5037845;28;20036;-73
2022/07/13 01:45:44;;;;;;;3.65;2.30;;;19.00;80.20;;;;;;5042543;28;20037;-73
2022/07/13 01:48:10;;;;;;;5.85;2.30;;;19.00;80.20;;;;;;5040464;28;20083;-73
2022/07/13 01:50:35;;;;;;;3.72;2.42;;;19.00;80.50;;;;;;5040951;28;20029;-73
2022/07/13 01:53:01;;;;;;;5.43;2.28;;;19.00;80.90;;;;;;5043886;28;20054;-73
2022/07/13 01:55:26;;;;;;;4.22;2.10;;;18.90;80.90;;;;;;5044998;28;20123;-73
2022/07/13 01:57:59;;;;;;;3.67;2.30;;;18.90;81.10;;;;;;5043810;28;20025;-73
2022/07/13 02:00:26;;;;;;;4.45;2.03;;;18.90;81.30;;;;;;5041915;28;20108;-73
2022/07/13 02:02:51;;;;;;;3.58;2.00;;;18.80;81.20;;;;;;5044563;28;20151;-73
2022/07/13 02:05:18;;;;;;;4.35;2.15;;;18.80;81.40;;;;;;5046335;28;20502;-73
2022/07/13 02:07:43;;;;;;;5.20;2.55;;;18.80;81.40;;;;;;5046717;28;20032;-73
2022/07/13 02:10:11;;;;;;;5.13;2.33;;;18.70;81.60;;;;;;5042484;28;20112;-73
2022/07/13 02:12:36;;;;;;;3.55;1.95;;;18.70;81.40;;;;;;5045519;28;20025;-73
2022/07/13 02:15:02;;;;;;;5.13;2.08;;;18.70;81.30;;;;;;5038413;28;20102;-73
2022/07/13 02:17:28;;;;;;;3.45;2.20;;;18.70;81.20;;;;;;5037838;28;20032;-73
2022/07/13 02:19:53;;;;;;;3.33;1.90;;;18.70;81.40;;;;;;5005971;28;1017490;-73
2022/07/13 02:22:19;;;;;;;3.38;1.98;;;18.70;81.60;;;;;;5045918;28;20029;-73
2022/07/13 02:24:44;;;;;;;4.13;2.10;;;18.60;82.00;;;;;;5041885;28;20310;-73
2022/07/13 02:27:10;;;;;;;3.45;2.08;;;18.60;81.90;;;;;;5040470;28;20045;-73
2022/07/13 02:29:35;;;;;;;4.10;2.08;;;18.60;82.10;;;;;;5036261;28;20479;-72
2022/07/13 02:32:01;;;;;;;2.83;1.95;;;18.60;82.00;;;;;;5046466;28;20029;-73
2022/07/13 02:34:29;;;;;;;8.93;2.47;;;18.50;82.00;;;;;;5041681;28;20055;-73
2022/07/13 02:36:56;;;;;;;3.95;2.42;;;18.60;82.10;;;;;;5047158;28;20183;-73
2022/07/13 02:39:22;;;;;;;4.43;2.10;;;18.60;82.00;;;;;;5046149;28;20464;-73
2022/07/13 02:41:49;;;;;;;5.63;2.58;;;18.50;82.20;;;;;;5045019;28;20068;-73
2022/07/13 02:44:15;;;;;;;2.63;2.00;;;18.50;82.10;;;;;;5039860;28;20032;-73
2022/07/13 02:46:40;;;;;;;3.33;2.08;;;18.50;82.10;;;;;;5046076;28;20469;-73
2022/07/13 02:49:06;;;;;;;2.58;1.70;;;18.50;82.40;;;;;;5039833;28;20030;-73
2022/07/13 02:51:31;;;;;;;2.78;2.00;;;18.50;82.40;;;;;;5043790;28;20221;-73
2022/07/13 02:53:57;;;;;;;3.60;2.00;;;18.50;82.30;;;;;;5042260;28;20033;-73
2022/07/13 02:56:22;;;;;;;3.78;2.13;;;18.50;82.30;;;;;;5046723;28;20080;-73
2022/07/13 02:58:48;;;;;;;3.47;1.98;;;18.50;82.20;;;;;;5041588;28;20167;-73
2022/07/13 03:01:13;;;;;;;3.58;2.35;;;18.50;82.20;;;;;;5044571;28;20037;-73
2022/07/13 03:03:39;;;;;;;4.57;1.70;;;18.50;82.30;;;;;;5045892;28;20045;-73
2022/07/13 03:06:04;;;;;;;3.22;1.90;;;18.50;82.10;;;;;;5044640;28;20155;-73
2022/07/13 03:08:30;;;;;;;4.25;2.20;;;18.50;82.10;;;;;;5034524;28;20093;-73
2022/07/13 03:10:55;;;;;;;6.03;2.15;;;18.50;82.10;;;;;;5038399;28;20115;-73
2022/07/13 03:13:21;;;;;;;3.80;2.22;;;18.50;82.30;;;;;;5043066;28;20449;-73
2022/07/13 03:15:46;;;;;;;2.92;2.08;;;18.50;82.00;;;;;;5045603;28;20522;-73
2022/07/13 03:18:12;;;;;;;4.10;2.35;;;18.50;82.00;;;;;;5042160;28;20072;-73
2022/07/13 03:20:39;;;;;;;3.30;2.05;;;18.50;81.80;;;;;;5038105;28;20048;-73
2022/07/13 03:23:04;;;;;;;4.07;2.10;;;18.50;81.70;;;;;;5043345;28;20047;-73
2022/07/13 03:25:30;;;;;;;2.88;1.80;;;18.50;81.80;;;;;;5043939;28;20037;-73
2022/07/13 03:27:55;;;;;;;4.35;1.90;;;18.40;81.70;;;;;;5045576;28;20418;-73
2022/07/13 03:30:21;;;;;;;2.78;1.83;;;18.50;81.90;;;;;;5040880;28;20194;-73
2022/07/13 03:32:48;;;;;;;3.85;2.20;;;18.50;81.60;;;;;;5043720;28;20397;-73
2022/07/13 03:35:14;;;;;;;8.52;2.10;;;18.50;81.50;;;;;;5040757;28;20021;-73
2022/07/13 03:37:39;;;;;;;3.60;2.00;;;18.50;81.30;;;;;;5045351;28;20025;-73
2022/07/13 03:40:05;;;;;;;3.80;2.20;;;18.50;81.40;;;;;;5043715;28;20055;-73
2022/07/13 03:42:33;;;;;;;3.70;2.00;;;18.50;81.00;;;;;;5045502;28;20048;-73
2022/07/13 03:44:58;;;;;;;4.60;1.98;;;18.50;81.10;;;;;;5043137;28;20021;-73
2022/07/13 03:47:24;;;;;;;4.32;1.80;;;18.50;81.30;;;;;;5045953;28;20163;-73
2022/07/13 03:49:49;;;;;;;2.17;1.60;;;18.50;81.30;;;;;;5045799;28;20029;-73
2022/07/13 03:52:15;;;;;;;2.45;1.70;;;18.50;81.20;;;;;;5045359;28;20041;-73
2022/07/13 03:54:40;;;;;;;5.25;2.08;;;18.50;81.20;;;;;;5047544;28;20573;-73
2022/07/13 03:57:05;;;;;;;3.72;2.20;;;18.50;81.20;;;;;;5043548;28;20103;-73
2022/07/13 03:59:31;;;;;;;4.68;2.00;;;18.60;81.00;;;;;;5043335;28;20033;-73
2022/07/13 04:01:57;;;;;;;4.40;1.95;;;18.60;80.80;;;;;;5046482;28;20037;-73
2022/07/13 04:04:22;;;;;;;3.17;1.70;;;18.60;81.20;;;;;;5044190;28;20421;-73
2022/07/13 04:06:48;;;;;;;5.03;1.98;;;18.60;81.10;;;;;;5047579;28;20114;-73
2022/07/13 04:09:13;;;;;;;5.50;2.20;;;18.60;80.80;;;;;;5044520;28;20043;-73
2022/07/13 04:11:39;;;;;;;4.45;1.70;;;18.60;80.90;;;;;;5046087;28;20035;-73
2022/07/13 04:14:04;;;;;;;2.65;1.80;;;18.60;80.70;;;;;;5039187;28;20037;-73
2022/07/13 04:16:30;;;;;;;2.72;1.67;;;18.70;80.70;;;;;;5042470;28;20086;-73
2022/07/13 04:18:55;;;;;;;3.83;2.13;;;18.70;80.90;;;;;;5047326;28;20116;-72
2022/07/13 04:21:21;;;;;;;3.25;1.98;;;18.80;80.60;;;;;;5046775;28;20036;-72
2022/07/13 04:23:46;;;;;;;2.28;1.73;;;18.90;80.30;;;;;;5048483;28;20535;-72
2022/07/13 04:26:12;;;;;;;2.50;2.03;;;18.90;80.00;;;;;;5046929;28;20045;-72
2022/07/13 04:28:37;;;;;;;3.17;1.75;;;19.00;80.30;;;;;;5036163;28;20260;-70
2022/07/13 04:31:03;;;;;;;3.33;1.63;;;19.00;80.10;;;;;;5046244;28;20084;-70
2022/07/13 04:33:28;;;;;;;2.70;1.75;;;19.00;80.30;;;;;;5045172;28;20051;-71
2022/07/13 04:35:54;;;;;;;3.95;1.90;;;19.00;80.30;;;;;;5046087;28;20096;-70
2022/07/13 04:38:19;;;;;;;3.45;1.63;;;19.00;80.10;;;;;;5047145;28;20135;-70
2022/07/13 04:40:48;;;;;;;6.43;1.90;;;19.00;79.80;;;;;;5045075;28;20421;-70
2022/07/13 04:43:13;;;;;;;2.65;1.83;;;19.10;80.10;;;;;;5038170;28;20087;-70
2022/07/13 04:45:38;;;;;;;3.50;1.63;;;19.10;79.80;;;;;;5043927;28;20444;-70
2022/07/13 04:48:04;;;;;;;2.53;1.70;;;19.20;80.10;;;;;;5044816;28;20100;-70
2022/07/13 04:50:30;;;;;;;2.92;1.90;;;19.30;79.20;;;;;;5039486;28;20517;-70
2022/07/13 04:52:56;;;;;;;4.47;1.67;;;19.30;79.00;;;;;;5043616;28;20029;-70
2022/07/13 04:55:21;;;;;;;3.72;1.60;;;19.30;78.60;;;;;;5044067;28;20059;-70
2022/07/13 04:57:47;;;;;;;4.28;1.63;;;19.40;78.90;;;;;;5044952;28;20067;-70
2022/07/13 05:00:12;;;;;;;3.60;1.75;;;19.50;78.60;;;;;;5039347;28;20106;-70
2022/07/13 05:02:38;;;;;;;2.55;1.58;;;19.50;78.80;;;;;;5047078;28;20029;-70
2022/07/13 05:05:05;;;;;;;4.45;1.80;;;19.50;79.30;;;;;;5046243;28;20116;-70
2022/07/13 05:07:31;;;;;;;3.95;1.65;;;19.60;78.80;;;;;;5040116;28;20034;-70
2022/07/13 05:09:56;;;;;;;4.03;1.70;;;19.60;78.50;;;;;;5047314;28;20418;-70
2022/07/13 05:12:22;;;;;;;2.42;1.67;;;19.70;79.10;;;;;;5042495;28;20066;-68
2022/07/13 05:14:48;;;;;;;2.13;1.27;;;19.70;78.60;;;;;;5043464;28;20469;-68
2022/07/13 05:17:14;;;;;;;3.83;1.50;;;19.80;79.10;;;;;;5045271;28;20037;-68
2022/07/13 05:19:39;;;;;;;2.45;1.52;;;19.80;78.70;;;;;;5042288;28;20114;-68
2022/07/13 05:22:05;;;;;;;4.93;1.83;;;19.80;78.40;;;;;;5045894;28;20040;-68
2022/07/13 05:24:30;;;;;;;2.50;1.65;;;19.90;78.30;;;;;;5041853;28;20503;-68
2022/07/13 05:26:56;;;;;;;3.05;1.48;;;19.90;78.60;;;;;;5039413;28;20400;-68
2022/07/13 05:29:21;;;;;;;2.13;1.40;;;19.90;78.40;;;;;;5045909;28;20044;-68
2022/07/13 05:31:47;;;;;;;2.70;1.77;;;20.00;78.30;;;;;;5045844;28;20032;-68
2022/07/13 05:34:13;;;;;;;2.22;1.55;;;20.00;78.30;;;;;;5044253;28;20040;-68
2022/07/13 05:36:38;;;;;;;4.82;1.70;;;20.10;78.50;;;;;;5044860;28;20048;-68
2022/07/13 05:39:04;;;;;;;2.88;1.45;;;20.20;79.20;;;;;;5040684;28;20052;-68
2022/07/13 05:41:30;;;;;;;2.47;1.50;;;20.30;78.50;;;;;;5042980;28;20037;-68
2022/07/13 05:43:55;;;;;;;3.15;1.48;;;20.30;78.70;;;;;;5041070;28;20033;-68
2022/07/13 05:46:21;;;;;;;3.55;1.52;;;20.30;78.30;;;;;;5039943;28;20047;-68
2022/07/13 05:48:46;;;;;;;2.35;1.45;;;20.30;78.10;;;;;;5039414;28;20379;-68
2022/07/13 05:51:12;;;;;;;2.30;1.50;;;20.30;78.50;;;;;;5037496;28;20036;-68
2022/07/13 05:53:37;;;;;;;2.92;1.70;;;20.20;78.40;;;;;;5041944;28;20049;-68
2022/07/13 05:56:03;;;;;;;2.97;1.77;;;20.30;78.30;;;;;;5040082;28;20384;-68
2022/07/13 05:58:29;;;;;;;2.03;1.55;;;20.20;78.10;;;;;;5032592;28;20041;-68
2022/07/13 06:00:54;;;;;;;2.20;1.17;;;20.30;78.70;;;;;;5037499;28;20052;-68
2022/07/13 06:03:20;;;;;;;3.45;1.70;;;20.30;78.30;;;;;;5033642;28;20037;-68
2022/07/13 06:05:45;;;;;;;6.03;1.67;;;20.30;78.00;;;;;;5040380;28;20048;-68
2022/07/13 06:08:11;;;;;;;4.05;1.52;;;20.30;78.90;;;;;;5038271;28;20033;-68
2022/07/13 06:10:36;;;;;;;3.67;1.30;;;20.40;79.20;;;;;;5043522;28;20047;-68
2022/07/13 06:13:02;;;;;;;2.65;1.35;;;20.30;78.30;;;;;;5040373;28;20370;-68
2022/07/13 06:15:27;;;;;;;3.42;1.70;;;20.40;77.70;;;;;;5042051;28;20043;-68
2022/07/13 06:17:53;;;;;;;2.90;1.42;;;20.50;78.40;;;;;;5043098;28;20051;-68
2022/07/13 06:20:18;;;;;;;4.22;1.70;;;20.60;78.10;;;;;;5041812;28;20448;-68
2022/07/13 06:23:09;;;;;;;3.47;1.60;;;20.60;77.50;;;;;;5041795;28;20029;-68
2022/07/13 06:25:29;;;;;;;1.83;1.45;;;20.50;77.30;;;;;;5034820;28;20350;-70
2022/07/13 06:27:54;;;;;;;3.60;1.48;;;20.60;78.10;;;;;;5034620;28;20033;-73
2022/07/13 06:30:20;;;;;;;3.10;1.52;;;20.60;78.50;;;;;;5039789;28;20041;-72
2022/07/13 06:32:45;;;;;;;1.77;1.35;;;20.60;77.90;;;;;;5038877;28;20060;-72
2022/07/13 06:35:12;;;;;;;5.68;1.40;;;20.70;78.20;;;;;;5041923;28;20064;-72
2022/07/13 06:37:37;;;;;;;5.22;1.58;;;20.60;77.90;;;;;;5044998;28;20069;-73
2022/07/13 06:40:03;;;;;;;4.57;1.50;;;20.60;78.10;;;;;;5038879;28;20443;-72
2022/07/13 06:42:29;;;;;;;2.05;1.60;;;20.50;78.80;;;;;;5047295;28;20036;-73
2022/07/13 06:44:55;;;;;;;3.83;1.70;;;20.50;78.80;;;;;;5043850;28;20368;-73
2022/07/13 06:47:20;;;;;;;3.15;1.23;;;20.50;78.60;;;;;;5048045;28;20074;-73
2022/07/13 06:49:46;;;;;;;3.20;1.45;;;20.50;79.50;;;;;;5041910;28;20033;-73
2022/07/13 06:52:11;;;;;;;3.20;1.35;;;20.40;79.50;;;;;;5045078;28;20044;-73
2022/07/13 06:54:37;;;;;;;5.55;1.75;;;20.30;80.40;;;;;;5046097;28;20033;-73
2022/07/13 06:57:02;;;;;;;2.72;1.67;;;20.30;80.00;;;;;;5044136;28;20314;-73
2022/07/13 06:59:28;;;;;;;2.30;1.60;;;20.30;79.80;;;;;;5045827;28;20031;-73
2022/07/13 07:01:53;;;;;;;2.88;1.60;;;20.30;79.80;;;;;;5048261;28;20036;-73
2022/07/13 07:04:19;;;;;;;2.05;1.60;;;20.30;79.40;;;;;;5044709;28;20112;-73
2022/07/13 07:06:45;;;;;;;2.85;1.40;;;20.40;80.00;;;;;;5044136;28;20053;-73
2022/07/13 07:09:11;;;;;;;1.83;1.45;;;20.50;79.50;;;;;;5042933;28;20416;-73
2022/07/13 07:11:36;;;;;;;4.47;1.60;;;20.50;80.10;;;;;;5046322;28;20056;-73
2022/07/13 07:14:02;;;;;;;3.00;1.60;;;20.50;79.10;;;;;;5045905;28;20032;-73
2022/07/13 07:16:28;;;;;;;3.45;1.60;;;20.60;78.60;;;;;;5044794;28;20078;-73
2022/07/13 07:18:53;;;;;;;3.85;1.90;;;20.80;78.70;;;;;;5048645;28;20426;-73
2022/07/13 07:21:19;;;;;;;2.40;1.60;;;20.80;78.40;;;;;;5047440;28;20033;-73
2022/07/13 07:23:44;;;;;;;2.75;1.65;;;20.90;77.70;;;;;;5049756;28;20045;-73
2022/07/13 07:26:10;;;;;;;2.63;1.63;;;21.00;77.60;;;;;;5048286;28;20126;-73
2022/07/13 07:28:36;;;;;;;2.75;1.65;;;20.90;77.50;;;;;;5046505;28;20025;-73
2022/07/13 07:31:01;;;;;;;3.05;1.42;;;21.00;77.60;;;;;;5047847;28;20361;-73
2022/07/13 07:33:26;;;;;;;2.45;1.52;;;21.00;77.40;;;;;;5049409;28;20524;-73
2022/07/13 07:35:52;;;;;;;1.77;1.50;;;21.10;77.80;;;;;;5047095;28;20059;-73
2022/07/13 07:38:17;;;;;;;2.20;1.45;;;21.30;77.60;;;;;;5048874;28;20469;-74
2022/07/13 07:40:43;;;;;;;2.33;1.40;;;21.20;76.90;;;;;;5047110;28;20111;-73
2022/07/13 07:43:09;;;;;;;3.22;1.55;;;21.20;76.80;;;;;;5048136;28;20464;-73
2022/07/13 07:45:35;;;;;;;2.60;1.42;;;21.30;76.50;;;;;;5047926;28;20199;-74
2022/07/13 07:48:03;;;;;;;4.03;1.70;;;21.50;77.10;;;;;;5042573;28;20564;-71
2022/07/13 07:50:28;;;;;;;2.55;1.73;;;21.50;76.20;;;;;;5048273;28;20049;-71
2022/07/13 07:52:54;;;;;;;4.13;1.60;;;21.60;76.10;;;;;;5049428;28;20076;-71
2022/07/13 07:55:20;;;;;;;3.75;1.67;;;21.90;75.50;;;;;;5045326;28;20033;-71
2022/07/13 07:57:50;;;;;;;4.47;1.70;;;22.10;74.50;;;;;;5049309;28;20108;-71
2022/07/13 08:00:16;;;;;;;2.97;1.52;;;22.10;73.50;;;;;;5045475;28;20056;-71
2022/07/13 08:02:42;;;;;;;3.28;1.60;;;22.30;72.90;;;;;;5048687;28;20044;-73
2022/07/13 08:05:08;;;;;;;2.50;1.58;;;22.30;73.20;;;;;;5048430;28;20491;-74
2022/07/13 08:07:38;;;;;;;2.83;1.70;;;22.50;73.00;;;;;;5047843;28;20033;-74
2022/07/13 08:10:03;;;;;;;2.28;1.60;;;22.60;72.80;;;;;;5041487;28;20033;-73
2022/07/13 08:12:29;;;;;;;3.15;1.70;;;22.80;72.60;;;;;;5042426;28;20364;-73
2022/07/13 08:14:54;;;;;;;3.40;1.67;;;22.80;73.60;;;;;;5042806;28;20090;-73
2022/07/13 08:17:20;;;;;;;6.22;1.60;;;23.00;71.90;;;;;;5046273;28;20037;-74
2022/07/13 08:19:45;;;;;;;4.30;1.52;;;23.00;72.00;;;;;;5047531;28;20421;-71
2022/07/13 08:22:11;;;;;;;2.13;1.50;;;23.00;71.40;;;;;;5046924;28;20037;-71
2022/07/13 08:24:36;;;;;;;2.17;1.55;;;23.00;69.80;;;;;;5041667;28;20063;-71
2022/07/13 08:27:02;;;;;;;3.17;1.70;;;23.10;70.30;;;;;;5042188;28;20219;-71
2022/07/13 08:29:27;;;;;;;3.38;1.70;;;23.20;71.20;;;;;;5046474;28;20060;-71
2022/07/13 08:31:53;;;;;;;1.95;1.33;;;23.30;71.00;;;;;;5046756;28;20455;-72
2022/07/13 08:39:47;;;;;;;2.70;1.58;;;23.40;70.10;;;;;;5043739;28;20040;-71
2022/07/13 08:42:13;;;;;;;3.13;1.60;;;23.50;69.70;;;;;;5047091;28;20028;-71
2022/07/13 08:44:38;;;;;;;2.60;1.52;;;23.40;68.50;;;;;;5038990;28;20035;-70
2022/07/13 08:47:05;;;;;;;3.40;1.55;;;23.40;68.60;;;;;;5049949;28;20129;-71
2022/07/13 08:49:31;;;;;;;6.40;1.90;;;23.60;68.60;;;;;;5049329;28;20388;-71
2022/07/13 08:51:58;;;;;;;3.13;1.77;;;23.50;68.60;;;;;;5044625;28;20045;-70
2022/07/13 08:54:23;;;;;;;2.75;1.48;;;23.40;68.20;;;;;;5035273;28;20412;-71
2022/07/13 08:56:49;;;;;;;4.32;1.50;;;23.30;67.70;;;;;;5044967;28;20041;-71
2022/07/13 08:59:14;;;;;;;3.35;1.60;;;23.20;68.60;;;;;;5038008;28;20049;-71
2022/07/13 09:01:40;;;;;;;1.65;1.50;;;23.00;68.50;;;;;;5040635;28;20041;-71
2022/07/13 09:04:11;;;;;;;5.03;1.80;;;23.00;68.70;;;;;;5041718;28;20034;-71
2022/07/13 09:06:39;;;;;;;2.90;1.65;;;23.10;70.60;;;;;;5046968;28;20060;-71
2022/07/13 09:09:23;;;;;;;2.42;1.50;;;23.10;69.40;;;;;;5044545;28;20118;-71
2022/07/13 09:11:48;;;;;;;2.47;1.30;;;23.10;68.70;;;;;;5046102;28;20020;-71
2022/07/13 09:14:24;;;;;;;2.40;1.10;;;23.40;70.00;;;;;;5047793;28;20025;-71
2022/07/13 09:16:52;;;;;;;4.63;1.60;;;23.50;72.00;;;;;;5039622;28;20465;-71
2022/07/13 09:19:18;;;;;;;2.25;1.33;;;23.40;69.20;;;;;;5052536;28;20067;-72
2022/07/13 09:21:44;;;;;;;2.67;1.48;;;23.50;70.60;;;;;;5040778;28;20429;-71
2022/07/13 09:24:09;;;;;;;1.85;1.30;;;23.40;68.70;;;;;;5046465;28;20039;-71
2022/07/13 09:26:41;;;;;;;3.92;1.23;;;23.50;69.90;;;;;;5044264;28;20036;-71
2022/07/13 09:29:07;;;;;;;2.30;1.50;;;23.50;69.30;;;;;;5045871;28;20403;-71
2022/07/13 09:31:52;;;;;;;4.03;1.40;;;23.70;70.60;;;;;;5047309;28;20183;-71
2022/07/13 09:34:18;;;;;;;2.75;1.40;;;23.80;69.70;;;;;;5048362;28;20086;-71
2022/07/13 09:36:44;;;;;;;6.43;1.58;;;24.00;70.00;;;;;;5045736;28;20051;-71
2022/07/13 09:39:10;;;;;;;4.50;1.65;;;24.00;66.70;;;;;;5046630;28;20036;-71
2022/07/13 09:41:35;;;;;;;1.83;1.30;;;24.30;65.90;;;;;;5047068;28;20159;-71
2022/07/13 09:47:00;;;;;;;2.55;1.30;;;24.50;65.70;;;;;;5046448;28;20186;-71
2022/07/13 09:49:41;;;;;;;2.78;1.30;;;25.00;63.90;;;;;;5038765;28;20036;-71
2022/07/13 09:52:16;;;;;;;4.22;1.50;;;25.60;61.60;;;;;;5043182;28;20091;-71
2022/07/13 09:54:43;;;;;;;2.88;1.73;;;25.70;61.00;;;;;;5048678;28;20121;-71
2022/07/13 09:57:12;;;;;;;4.30;1.77;;;25.50;59.10;;;;;;5034111;28;20035;-70
2022/07/13 09:59:39;;;;;;;5.15;1.77;;;25.60;58.90;;;;;;5037286;28;20029;-70
2022/07/13 10:02:06;;;;;;;2.67;1.63;;;25.90;57.90;;;;;;5045003;28;20429;-71
2022/07/13 10:04:32;;;;;;;3.10;1.80;;;26.10;58.60;;;;;;5046096;28;20074;-70
2022/07/13 10:07:02;;;;;;;5.53;1.83;;;26.20;56.70;;;;;;5045462;28;20440;-70
2022/07/13 10:11:54;;;;;;;4.50;1.88;;;26.40;54.10;;;;;;5044357;28;20934;-70
2022/07/13 10:14:21;;;;;;;7.32;2.47;;;26.60;55.80;;;;;;5041352;28;20115;-71
2022/07/13 10:16:46;;;;;;;7.80;2.28;;;26.80;53.30;;;;;;5041194;28;20029;-70
2022/07/13 10:19:14;;;;;;;5.60;2.65;;;26.60;54.90;;;;;;5038090;28;20053;-71
2022/07/13 10:22:03;;;;;;;5.90;2.50;;;26.70;53.00;;;;;;5042363;28;20113;-70
2022/07/13 10:24:29;;;;;;;2.65;1.80;;;26.80;53.20;;;;;;5039201;28;20506;-71
2022/07/13 10:27:25;;;;;;;4.13;1.98;;;27.40;53.30;;;;;;5050738;28;20045;-70
2022/07/13 10:29:54;;;;;;;5.50;2.13;;;27.30;52.00;;;;;;5039473;28;20032;-70
2022/07/13 10:32:27;;;;;;;3.53;2.10;;;27.60;51.60;;;;;;5046128;28;20032;-71
2022/07/13 10:34:53;;;;;;;3.40;2.38;;;27.90;51.40;;;;;;5034443;28;20359;-71
2022/07/13 10:37:19;;;;;;;4.82;2.40;;;28.20;49.70;;;;;;5045331;28;20112;-71
2022/07/13 10:40:15;;;;;;;5.13;2.25;;;28.20;50.20;;;;;;5043090;28;20100;-71
2022/07/13 10:42:53;;;;;;;7.72;2.33;;;28.00;50.70;;;;;;5044260;28;20047;-71
2022/07/13 10:45:48;;;;;;;3.33;1.85;;;28.40;49.80;;;;;;5038310;28;20033;-71
2022/07/13 10:48:40;;;;;;;3.75;2.10;;;28.90;48.90;;;;;;5045610;28;20033;-71
2022/07/13 10:51:15;;;;;;;3.72;1.85;;;29.00;47.10;;;;;;5040660;28;20111;-71
2022/07/13 10:53:43;;;;;;;3.65;2.20;;;29.20;47.30;;;;;;5039917;28;20081;-71
2022/07/13 10:56:19;;;;;;;5.72;1.95;;;29.50;47.50;;;;;;5044343;28;20035;-71
2022/07/13 10:58:46;;;;;;;3.15;2.22;;;30.00;47.20;;;;;;5046454;28;20060;-71
2022/07/13 11:01:30;;;;;;;6.43;2.70;;;29.40;46.00;;;;;;5053101;28;20033;-71
2022/07/13 11:03:56;;;;;;;8.82;2.88;;;29.00;47.50;;;;;;5035590;28;20025;-71
2022/07/13 11:06:24;;;;;;;4.57;2.55;;;28.60;48.50;;;;;;5045051;28;20412;-71
2022/07/13 11:09:18;;;;;;;3.88;2.47;;;28.70;49.10;;;;;;5042467;28;20021;-71
2022/07/13 11:11:45;;;;;;;7.80;2.20;;;28.90;49.00;;;;;;5043399;28;20128;-71
2022/07/13 11:14:36;;;;;;;3.45;2.08;;;28.90;49.10;;;;;;5050070;28;20060;-71
2022/07/13 11:17:11;;;;;;;;;;;28.90;50.00;;;;;;5036069;28;20123;-71
2022/07/13 11:19:53;;;;;;;4.68;2.13;;;29.50;47.50;;;;;;5042464;28;19956;-71
2022/07/13 11:22:24;;;;;;;5.40;1.90;;;29.90;47.50;;;;;;5043551;28;20029;-71
2022/07/13 11:25:15;;;;;;;7.03;2.50;;;29.10;47.20;;;;;;5046694;28;20418;-71
2022/07/13 11:27:54;;;;;;;5.05;1.90;;;28.50;49.00;;;;;;5044579;28;20522;-71
2022/07/13 11:30:27;;;;;;;3.15;2.05;;;28.40;50.30;;;;;;5044372;28;20048;-71
2022/07/13 11:32:53;;;;;;;3.78;1.50;;;28.90;50.00;;;;;;5046615;28;20139;-71
2022/07/13 11:35:20;;;;;;;3.72;1.92;;;29.20;48.60;;;;;;5046729;28;20462;-71
2022/07/13 11:37:46;;;;;;;2.25;1.60;;;29.30;48.10;;;;;;5050765;28;20041;-71
2022/07/13 11:40:25;;;;;;;3.75;2.13;;;29.70;49.30;;;;;;5041650;28;20116;-71
2022/07/13 11:42:51;;;;;;;2.90;1.92;;;29.70;48.70;;;;;;5048983;28;20025;-71
2022/07/13 11:45:25;;;;;;;3.80;2.25;;;29.40;49.70;;;;;;5041902;28;20366;-71
2022/07/13 11:47:54;;;;;;;4.03;2.08;;;29.70;48.60;;;;;;5047998;28;20029;-71
2022/07/13 11:50:19;;;;;;;3.70;2.17;;;30.40;46.40;;;;;;5044364;28;20457;-71
2022/07/13 11:52:45;;;;;;;3.80;2.10;;;30.00;47.50;;;;;;5038724;28;20044;-71
2022/07/13 11:55:11;;;;;;;4.00;2.50;;;29.40;48.40;;;;;;5043170;28;20425;-71
2022/07/13 11:57:37;;;;;;;5.68;2.25;;;28.90;49.30;;;;;;5048451;28;20487;-71
2022/07/13 12:00:08;;;;;;;3.85;2.38;;;28.50;50.50;;;;;;5046844;28;20119;-71
2022/07/13 12:02:36;;;;;;;4.07;2.50;;;28.20;51.00;;;;;;5046542;28;20431;-72
2022/07/13 12:05:02;;;;;;;7.15;3.00;;;28.00;51.90;;;;;;5043306;28;20033;-71
2022/07/13 12:07:31;;;;;;;4.75;2.58;;;28.00;51.80;;;;;;5046997;28;20045;-70
2022/07/13 12:10:05;;;;;;;4.18;2.60;;;29.10;50.90;;;;;;5049621;28;20024;-71
2022/07/13 12:12:32;;;;;;;5.95;2.53;;;29.90;49.90;;;;;;5042737;28;20168;-71
2022/07/13 12:14:58;;;;;;;6.35;2.85;;;30.00;47.90;;;;;;5046233;28;20094;-71
2022/07/13 12:17:25;;;;;;;4.97;2.95;;;29.40;50.10;;;;;;5048580;28;20148;-71
2022/07/13 12:19:52;;;;;;;5.65;2.80;;;29.50;48.90;;;;;;5048297;28;20060;-71
2022/07/13 12:22:22;;;;;;;4.60;2.40;;;29.80;48.70;;;;;;5048633;28;20399;-71
2022/07/13 12:24:48;;;;;;;2.45;2.15;;;30.00;50.00;;;;;;5050171;28;20029;-71
2022/07/13 12:27:40;;;;;;;4.55;2.70;;;29.70;50.80;;;;;;5043729;28;20037;-71
2022/07/13 12:30:11;;;;;;;3.95;2.20;;;29.50;50.70;;;;;;5039566;28;20537;-71
2022/07/13 12:33:05;;;;;;;3.92;2.00;;;29.10;51.70;;;;;;5041901;28;20025;-71
2022/07/13 12:35:35;;;;;;;6.03;2.05;;;28.80;52.10;;;;;;5048668;28;20372;-71
2022/07/13 12:38:04;;;;;;;3.63;2.20;;;29.20;51.50;;;;;;5040529;28;20401;-71
2022/07/13 12:40:49;;;;;;;7.18;1.83;;;28.90;51.30;;;;;;5040344;28;20057;-71
2022/07/13 12:43:23;;;;;;;4.32;1.90;;;29.10;51.50;;;;;;5039595;28;20125;-71
2022/07/13 12:45:48;;;;;;;2.83;1.70;;;29.90;50.50;;;;;;5038657;28;20037;-71
2022/07/13 12:48:16;;;;;;;4.35;2.25;;;30.30;49.00;;;;;;5039424;28;20033;-71
2022/07/13 12:50:42;;;;;;;3.03;1.75;;;29.80;48.60;;;;;;5038265;28;20090;-71
2022/07/13 12:53:08;;;;;;;4.88;1.70;;;30.40;47.90;;;;;;5048367;28;20717;-71
2022/07/13 12:55:54;;;;;;;6.93;1.98;;;30.50;48.10;;;;;;5040262;28;20091;-71
2022/07/13 12:58:19;;;;;;;5.20;2.42;;;29.30;50.20;;;;;;5037661;28;20530;-71
2022/07/13 13:00:45;;;;;;;4.45;2.10;;;28.70;52.30;;;;;;5047133;28;20147;-71